createdAt,value
2023-03-21T00:00:29.515Z,97.10
2023-03-21T00:02:56.528Z,97.10
2023-03-21T00:05:23.472Z,97.10
2023-03-21T00:07:50.492Z,97.10
2023-03-21T00:10:26.777Z,97.10
2023-03-21T00:12:59.872Z,97.20
2023-03-21T00:15:39.286Z,97.20
2023-03-21T00:18:11.391Z,97.20
2023-03-21T00:20:38.210Z,97.20
2023-03-21T00:23:04.992Z,97.20
2023-03-21T00:25:32.893Z,97.20
2023-03-21T00:28:08.022Z,97.20
2023-03-21T00:30:35.445Z,97.20
2023-03-21T00:33:12.056Z,97.20
2023-03-21T00:36:02.574Z,97.20
2023-03-21T00:38:34.163Z,97.50
2023-03-21T00:41:11.004Z,97.10
2023-03-21T00:43:44.388Z,97.20
2023-03-21T00:46:11.184Z,97.20
2023-03-21T00:48:39.394Z,97.20
2023-03-21T00:51:25.850Z,97.60
2023-03-21T00:53:58.200Z,97.30
2023-03-21T00:56:27.727Z,97.30
2023-03-21T00:58:54.470Z,97.40
2023-03-21T01:01:21.288Z,97.40
2023-03-21T01:03:50.915Z,97.40
2023-03-21T01:06:20.836Z,97.50
2023-03-21T01:08:52.617Z,97.50
2023-03-21T01:11:25.926Z,97.50
2023-03-21T01:13:59.597Z,97.50
2023-03-21T01:16:29.223Z,97.60
2023-03-21T01:18:56.648Z,97.60
2023-03-21T01:21:23.390Z,97.60
2023-03-21T01:23:50.633Z,97.60
2023-03-21T01:26:17.533Z,97.70
2023-03-21T01:28:45.253Z,97.70
2023-03-21T01:31:15.189Z,97.70
2023-03-21T01:33:43.575Z,97.80
2023-03-21T01:36:17.931Z,97.80
2023-03-21T01:38:45.844Z,97.90
2023-03-21T01:41:33.676Z,97.80
2023-03-21T01:44:05.960Z,97.90
2023-03-21T01:49:59.371Z,97.90
2023-03-21T01:52:38.763Z,97.90
2023-03-21T01:55:12.638Z,97.90
2023-03-21T01:58:06.314Z,98.40
2023-03-21T02:00:43.660Z,98.00
2023-03-21T02:03:35.241Z,98.00
2023-03-21T02:06:50.359Z,98.00
2023-03-21T02:09:32.369Z,98.10
2023-03-21T02:12:00.258Z,98.10
2023-03-21T02:14:34.515Z,98.10
2023-03-21T02:17:13.969Z,98.10
2023-03-21T02:20:08.717Z,98.20
2023-03-21T02:23:02.842Z,98.20
2023-03-21T02:25:54.309Z,98.30
2023-03-21T02:28:31.288Z,98.30
2023-03-21T02:31:15.664Z,98.30
2023-03-21T02:34:10.204Z,98.30
2023-03-21T02:37:03.183Z,98.30
2023-03-21T02:39:49.258Z,98.30
2023-03-21T02:42:42.056Z,98.20
2023-03-21T02:45:20.240Z,98.40
2023-03-21T02:48:04.500Z,98.30
2023-03-21T02:50:41.740Z,98.40
2023-03-21T02:53:12.820Z,98.40
2023-03-21T02:55:42.954Z,98.40
2023-03-21T02:58:13.805Z,98.40
2023-03-21T03:00:50.077Z,98.50
2023-03-21T03:03:34.806Z,98.50
2023-03-21T03:06:13.409Z,98.50
2023-03-21T03:09:12.848Z,98.70
2023-03-21T03:11:43.209Z,98.70
2023-03-21T03:14:56.456Z,99.10
2023-03-21T03:17:27.949Z,98.90
2023-03-21T03:20:32.177Z,98.90
2023-03-21T03:23:34.307Z,99.00
2023-03-21T03:26:26.372Z,99.00
2023-03-21T03:29:01.113Z,98.90
2023-03-21T03:31:34.478Z,98.80
2023-03-21T03:34:14.118Z,98.90
2023-03-21T03:36:47.479Z,98.90
2023-03-21T03:39:18.208Z,98.90
2023-03-21T03:42:15.534Z,98.90
2023-03-21T03:44:53.112Z,99.00
2023-03-21T03:47:56.760Z,98.90
2023-03-21T03:50:38.693Z,99.00
2023-03-21T03:53:28.570Z,98.90
2023-03-21T03:55:57.417Z,99.00
2023-03-21T03:58:36.162Z,98.90
2023-03-21T04:01:07.477Z,98.90
2023-03-21T04:03:48.377Z,98.90
2023-03-21T04:06:18.129Z,98.90
2023-03-21T04:08:45.350Z,98.90
2023-03-21T04:11:15.795Z,98.90
2023-03-21T04:13:46.864Z,98.90
2023-03-21T04:16:19.779Z,98.80
2023-03-21T04:18:47.661Z,98.80
2023-03-21T04:21:18.476Z,98.90
2023-03-21T04:23:45.392Z,98.80
2023-03-21T04:26:12.231Z,98.80
2023-03-21T04:28:43.740Z,98.90
2023-03-21T04:31:27.181Z,98.80
2023-03-21T04:34:09.813Z,98.80
2023-03-21T04:36:47.524Z,98.80
2023-03-21T04:39:15.243Z,98.80
2023-03-21T04:41:46.270Z,98.80
2023-03-21T04:44:15.503Z,98.80
2023-03-21T04:46:42.604Z,98.90
2023-03-21T04:49:10.829Z,98.90
2023-03-21T04:51:38.753Z,99.20
2023-03-21T04:56:36.578Z,98.80
2023-03-21T04:59:09.821Z,98.80
2023-03-21T05:01:37.144Z,98.90
2023-03-21T05:04:04.399Z,98.80
2023-03-21T05:06:33.461Z,98.80
2023-03-21T05:09:05.201Z,98.80
2023-03-21T05:11:37.484Z,98.90
2023-03-21T05:14:05.678Z,98.80
2023-03-21T05:16:32.805Z,98.80
2023-03-21T05:19:03.841Z,98.80
2023-03-21T05:21:41.191Z,98.80
2023-03-21T05:24:20.266Z,98.80
2023-03-21T05:26:50.792Z,98.80
2023-03-21T05:29:19.690Z,98.80
2023-03-21T05:31:52.989Z,98.80
2023-03-21T05:34:20.647Z,98.80
2023-03-21T05:36:47.562Z,98.80
2023-03-21T05:39:14.316Z,98.80
2023-03-21T05:41:46.641Z,98.80
2023-03-21T05:44:14.086Z,98.80
2023-03-21T05:46:40.960Z,98.80
2023-03-21T05:49:07.978Z,98.80
2023-03-21T05:51:35.257Z,98.80
2023-03-21T05:54:01.919Z,98.80
2023-03-21T05:56:29.689Z,98.90
2023-03-21T05:59:01.691Z,98.90
2023-03-21T06:01:30.913Z,99.00
2023-03-21T06:04:07.262Z,99.00
2023-03-21T06:06:34.335Z,99.00
2023-03-21T06:09:01.953Z,99.00
2023-03-21T06:11:34.062Z,99.00
2023-03-21T06:14:25.405Z,99.00
2023-03-21T06:17:13.159Z,99.00
2023-03-21T06:20:05.050Z,99.10
2023-03-21T06:22:36.410Z,99.10
2023-03-21T06:25:04.721Z,99.20
2023-03-21T06:27:31.399Z,99.30
2023-03-21T06:29:59.398Z,99.30
2023-03-21T06:32:27.614Z,99.40
2023-03-21T06:34:58.447Z,99.40
2023-03-21T06:37:26.450Z,99.40
2023-03-21T06:39:55.485Z,99.50
2023-03-21T06:42:23.031Z,99.50
2023-03-21T06:44:51.265Z,99.60
2023-03-21T06:47:18.104Z,99.60
2023-03-21T06:49:46.285Z,99.60
2023-03-21T06:52:13.469Z,99.60
2023-03-21T06:54:42.228Z,99.70
2023-03-21T06:57:14.155Z,99.80
2023-03-21T06:59:44.152Z,99.80
2023-03-21T07:02:15.884Z,99.90
2023-03-21T07:04:59.695Z,99.90
2023-03-21T07:07:29.674Z,99.90
2023-03-21T07:09:56.593Z,99.90
2023-03-21T07:12:24.595Z,99.90
2023-03-21T07:15:10.089Z,99.90
2023-03-21T07:17:38.485Z,99.90
2023-03-21T07:20:08.711Z,99.90
2023-03-21T07:22:36.213Z,99.90
2023-03-21T07:25:05.404Z,99.90
2023-03-21T07:27:40.658Z,99.90
2023-03-21T07:30:08.717Z,99.90
2023-03-21T07:32:37.733Z,99.90
2023-03-21T07:35:06.078Z,99.90
2023-03-21T07:37:32.703Z,99.90
2023-03-21T07:39:59.727Z,99.90
2023-03-21T07:42:26.489Z,99.90
2023-03-21T07:44:59.238Z,99.90
2023-03-21T07:47:29.587Z,99.90
2023-03-21T07:49:56.292Z,99.90
2023-03-21T07:52:23.011Z,99.90
2023-03-21T07:54:49.629Z,99.90
2023-03-21T07:57:17.401Z,99.90
2023-03-21T07:59:44.181Z,99.90
2023-03-21T08:02:14.891Z,99.90
2023-03-21T08:04:41.653Z,99.90
2023-03-21T08:07:08.522Z,99.90
2023-03-21T08:09:36.116Z,99.90
2023-03-21T08:12:04.067Z,99.90
2023-03-21T08:14:30.802Z,99.90
2023-03-21T08:16:57.613Z,99.90
2023-03-21T08:19:24.322Z,99.90
2023-03-21T08:21:51.918Z,99.90
2023-03-21T08:24:19.274Z,99.90
2023-03-21T08:26:46.528Z,99.90
2023-03-21T08:29:13.598Z,99.90
2023-03-21T08:31:41.320Z,99.90
2023-03-21T08:34:08.109Z,99.90
2023-03-21T08:36:36.845Z,99.90
2023-03-21T08:39:05.488Z,99.90
2023-03-21T08:41:36.380Z,99.90
2023-03-21T08:44:05.723Z,99.90
2023-03-21T08:46:32.770Z,99.90
2023-03-21T08:48:59.482Z,99.90
2023-03-21T08:51:26.153Z,99.90
2023-03-21T08:53:52.905Z,99.90
2023-03-21T08:56:19.603Z,99.90
2023-03-21T08:58:47.311Z,99.90
2023-03-21T09:01:15.538Z,99.90
2023-03-21T09:03:43.590Z,99.90
2023-03-21T09:06:13.475Z,99.90
2023-03-21T09:08:41.826Z,99.90
2023-03-21T09:11:09.605Z,99.90
2023-03-21T09:13:36.502Z,99.90
2023-03-21T09:16:03.837Z,99.90
2023-03-21T09:18:47.303Z,99.90
2023-03-21T09:21:16.046Z,99.90
2023-03-21T09:23:44.690Z,99.90
2023-03-21T09:26:12.429Z,99.90
2023-03-21T09:28:40.367Z,99.90
2023-03-21T09:31:08.919Z,99.90
2023-03-21T09:33:35.957Z,99.90
2023-03-21T09:36:03.584Z,99.90
2023-03-21T09:38:30.409Z,99.90
2023-03-21T09:41:16.248Z,99.90
2023-03-21T09:44:10.681Z,99.90
2023-03-21T09:46:43.207Z,99.90
2023-03-21T09:49:18.718Z,99.90
2023-03-21T09:51:50.992Z,99.90
2023-03-21T09:54:21.274Z,99.90
2023-03-21T09:56:51.264Z,99.90
2023-03-21T09:59:33.382Z,99.90
2023-03-21T10:02:01.716Z,99.90
2023-03-21T10:04:29.421Z,99.90
2023-03-21T10:07:02.070Z,99.90
2023-03-21T10:09:30.368Z,99.90
2023-03-21T10:12:04.278Z,99.90
2023-03-21T10:14:34.001Z,99.90
2023-03-21T10:17:24.618Z,99.90
2023-03-21T10:20:15.930Z,99.90
2023-03-21T10:22:45.892Z,99.90
2023-03-21T10:25:24.547Z,99.90
2023-03-21T10:27:52.647Z,99.90
2023-03-21T10:30:25.494Z,99.90
2023-03-21T10:32:52.428Z,99.90
2023-03-21T10:35:19.755Z,99.90
2023-03-21T10:37:46.891Z,99.90
2023-03-21T10:40:17.185Z,99.90
2023-03-21T10:42:44.176Z,99.90
2023-03-21T10:45:17.580Z,99.90
2023-03-21T10:47:48.381Z,99.90
2023-03-21T10:50:17.886Z,99.90
2023-03-21T10:52:50.867Z,99.90
2023-03-21T10:55:17.661Z,99.90
2023-03-21T10:57:46.606Z,99.90
2023-03-21T11:00:22.422Z,99.90
2023-03-21T11:02:51.489Z,99.90
2023-03-21T11:05:40.137Z,99.90
2023-03-21T11:08:13.963Z,99.90
2023-03-21T11:11:01.314Z,99.90
2023-03-21T11:13:37.712Z,99.90
2023-03-21T11:16:30.256Z,99.90
2023-03-21T11:19:01.402Z,99.90
2023-03-21T11:21:29.657Z,99.90
2023-03-21T11:23:57.314Z,99.90
2023-03-21T11:26:30.802Z,99.90
2023-03-21T11:28:58.374Z,99.90
2023-03-21T11:31:41.367Z,99.90
2023-03-21T11:34:09.537Z,99.90
2023-03-21T11:36:41.356Z,99.90
2023-03-21T11:39:39.524Z,99.90
2023-03-21T11:42:28.718Z,99.90
2023-03-21T11:45:10.332Z,99.90
2023-03-21T11:47:37.302Z,99.90
2023-03-21T11:50:29.818Z,99.90
2023-03-21T11:53:11.719Z,99.90
2023-03-21T11:55:50.212Z,99.90
2023-03-21T11:58:28.341Z,99.90
2023-03-21T12:01:09.066Z,99.90
2023-03-21T12:04:04.495Z,99.90
2023-03-21T12:06:52.730Z,99.90
2023-03-21T12:09:45.757Z,99.90
2023-03-21T12:12:32.982Z,99.90
2023-03-21T12:15:13.924Z,99.90
2023-03-21T12:18:05.549Z,99.90
2023-03-21T12:20:49.820Z,99.90
2023-03-21T12:23:41.273Z,99.90
2023-03-21T12:26:31.920Z,99.90
2023-03-21T12:29:11.115Z,99.90
2023-03-21T12:31:47.032Z,99.90
2023-03-21T12:34:16.702Z,99.90
2023-03-21T12:37:14.767Z,99.90
2023-03-21T12:39:41.624Z,99.90
2023-03-21T12:42:39.362Z,99.90
2023-03-21T12:45:18.857Z,99.90
2023-03-21T12:47:53.264Z,99.90
2023-03-21T12:50:32.825Z,99.90
2023-03-21T12:53:07.695Z,99.90
2023-03-21T12:55:35.859Z,99.90
2023-03-21T12:58:24.527Z,99.90
2023-03-21T13:01:01.403Z,99.90
2023-03-21T13:03:40.387Z,99.90
2023-03-21T13:06:18.073Z,99.70
2023-03-21T13:08:51.148Z,99.70
2023-03-21T13:11:21.622Z,99.50
2023-03-21T13:14:11.544Z,99.40
2023-03-21T13:16:52.582Z,98.90
2023-03-21T13:19:34.456Z,99.20
2023-03-21T13:22:12.245Z,99.40
2023-03-21T13:24:43.755Z,99.10
2023-03-21T13:27:45.990Z,98.70
2023-03-21T13:30:20.536Z,98.30
2023-03-21T13:32:55.316Z,98.60
2023-03-21T13:35:29.160Z,98.70
2023-03-21T13:38:12.655Z,98.60
2023-03-21T13:40:51.707Z,98.40
2023-03-21T13:43:42.584Z,98.30
2023-03-21T13:46:50.540Z,98.20
2023-03-21T13:49:36.699Z,98.10
2023-03-21T13:52:09.642Z,98.20
2023-03-21T13:54:39.001Z,98.40
2023-03-21T13:57:06.608Z,98.50
2023-03-21T13:59:38.282Z,98.60
2023-03-21T14:02:22.735Z,98.60
2023-03-21T14:05:07.395Z,98.60
2023-03-21T14:07:40.977Z,98.70
2023-03-21T14:10:29.475Z,98.80
2023-03-21T14:12:56.951Z,98.70
2023-03-21T14:15:27.631Z,98.90
2023-03-21T14:17:55.490Z,98.80
2023-03-21T14:20:34.001Z,98.80
2023-03-21T14:23:03.202Z,98.60
2023-03-21T14:25:40.975Z,98.80
2023-03-21T14:28:18.916Z,98.80
2023-03-21T14:30:50.139Z,98.70
2023-03-21T14:33:39.437Z,98.80
2023-03-21T14:36:18.900Z,98.40
2023-03-21T14:38:57.072Z,98.20
2023-03-21T14:41:26.501Z,98.10
2023-03-21T14:44:15.296Z,98.00
2023-03-21T14:46:43.085Z,97.20
2023-03-21T14:49:28.145Z,97.70
2023-03-21T14:51:57.916Z,97.10
2023-03-21T14:54:27.155Z,97.10
2023-03-21T14:57:01.418Z,97.40
2023-03-21T14:59:32.101Z,96.60
2023-03-21T15:02:03.578Z,96.70
2023-03-21T15:04:31.786Z,96.90
2023-03-21T15:07:04.874Z,96.60
2023-03-21T15:09:34.523Z,96.00
2023-03-21T15:12:01.779Z,96.20
2023-03-21T15:14:36.688Z,96.00
2023-03-21T15:17:05.091Z,95.30
2023-03-21T15:19:34.599Z,95.70
2023-03-21T15:22:10.892Z,95.40
2023-03-21T15:24:42.152Z,95.00
2023-03-21T15:27:16.018Z,95.10
2023-03-21T15:29:43.711Z,94.80
2023-03-21T15:32:18.769Z,95.30
2023-03-21T15:34:46.203Z,94.90
2023-03-21T15:37:24.064Z,95.30
2023-03-21T15:39:52.372Z,94.60
2023-03-21T15:42:31.975Z,95.10
2023-03-21T15:45:02.280Z,94.70
2023-03-21T15:47:47.962Z,95.10
2023-03-21T15:50:27.265Z,94.30
2023-03-21T15:52:55.477Z,94.50
2023-03-21T15:55:35.342Z,95.00
2023-03-21T15:58:16.346Z,94.70
2023-03-21T16:01:04.156Z,94.70
2023-03-21T16:03:37.704Z,95.10
2023-03-21T16:06:19.697Z,95.10
2023-03-21T16:08:51.945Z,94.90
2023-03-21T16:11:28.245Z,95.00
2023-03-21T16:13:56.146Z,94.90
2023-03-21T16:16:25.387Z,95.10
2023-03-21T16:18:53.196Z,95.00
2023-03-21T16:21:24.048Z,94.90
2023-03-21T16:23:51.078Z,94.80
2023-03-21T16:26:23.546Z,94.90
2023-03-21T16:28:50.724Z,94.70
2023-03-21T16:31:19.949Z,94.80
2023-03-21T16:33:47.338Z,94.60
2023-03-21T16:36:27.513Z,94.50
2023-03-21T16:38:55.114Z,94.30
2023-03-21T16:41:26.246Z,94.40
2023-03-21T16:43:53.646Z,94.10
2023-03-21T16:46:26.048Z,94.40
2023-03-21T16:48:55.435Z,94.30
2023-03-21T16:51:33.775Z,94.30
2023-03-21T16:54:01.121Z,94.30
2023-03-21T16:56:29.724Z,94.30
2023-03-21T16:58:57.907Z,94.40
2023-03-21T17:01:29.851Z,94.40
2023-03-21T17:04:00.236Z,94.40
2023-03-21T17:06:28.716Z,94.40
2023-03-21T17:08:56.759Z,94.30
2023-03-21T17:11:26.728Z,94.30
2023-03-21T17:13:55.046Z,94.40
2023-03-21T17:16:26.835Z,94.40
2023-03-21T17:18:54.389Z,94.50
2023-03-21T17:21:23.759Z,94.50
2023-03-21T17:23:52.729Z,94.40
2023-03-21T17:26:27.891Z,94.50
2023-03-21T17:28:59.752Z,94.40
2023-03-21T17:31:28.202Z,94.60
2023-03-21T17:33:54.835Z,94.60
2023-03-21T17:36:29.815Z,94.70
2023-03-21T17:38:57.763Z,94.50
2023-03-21T17:41:24.790Z,94.70
2023-03-21T17:43:52.170Z,94.80
2023-03-21T17:46:22.316Z,94.80
2023-03-21T17:48:49.433Z,94.70
2023-03-21T17:51:16.969Z,94.80
2023-03-21T17:53:49.085Z,94.80
2023-03-21T17:56:20.034Z,94.80
2023-03-21T17:58:47.157Z,94.80
2023-03-21T18:01:14.343Z,94.80
2023-03-21T18:03:41.201Z,94.90
2023-03-21T18:06:14.987Z,94.90
2023-03-21T18:08:42.264Z,94.80
2023-03-21T18:11:12.499Z,94.90
2023-03-21T18:13:40.429Z,94.90
2023-03-21T18:16:07.947Z,94.90
2023-03-21T18:18:35.022Z,94.90
2023-03-21T18:21:02.087Z,94.90
2023-03-21T18:23:29.025Z,94.90
2023-03-21T18:25:55.742Z,95.00
2023-03-21T18:28:22.546Z,95.10
2023-03-21T18:31:07.433Z,95.30
2023-03-21T18:33:37.844Z,95.40
2023-03-21T18:36:07.457Z,95.60
2023-03-21T18:38:35.377Z,95.70
2023-03-21T18:41:02.080Z,95.80
2023-03-21T18:46:16.276Z,96.00
2023-03-21T18:48:43.241Z,96.10
2023-03-21T18:51:10.099Z,96.10
2023-03-21T18:53:36.853Z,96.20
2023-03-21T18:56:09.312Z,96.30
2023-03-21T18:58:37.189Z,96.30
2023-03-21T19:01:05.038Z,96.30
2023-03-21T19:03:37.130Z,96.30
2023-03-21T19:06:05.546Z,96.40
2023-03-21T19:08:34.768Z,96.40
2023-03-21T19:11:05.964Z,96.40
2023-03-21T19:13:33.921Z,96.50
2023-03-21T19:16:02.670Z,96.60
2023-03-21T19:18:52.174Z,96.60
2023-03-21T19:21:19.043Z,96.70
2023-03-21T19:26:32.546Z,96.80
2023-03-21T19:28:59.285Z,96.80
2023-03-21T19:31:26.691Z,96.80
2023-03-21T19:33:53.351Z,96.90
2023-03-21T19:36:22.693Z,96.90
2023-03-21T19:38:50.541Z,96.90
2023-03-21T19:41:18.523Z,97.00
2023-03-21T19:43:54.085Z,97.00
2023-03-21T19:46:24.643Z,97.10
2023-03-21T19:48:56.226Z,97.10
2023-03-21T19:51:30.049Z,97.20
2023-03-21T19:54:03.206Z,97.10
2023-03-21T19:56:31.648Z,97.10
2023-03-21T19:58:58.908Z,97.10
2023-03-21T20:01:26.251Z,97.10
2023-03-21T20:03:53.098Z,97.00
2023-03-21T20:06:22.358Z,97.00
2023-03-21T20:09:27.330Z,97.00
2023-03-21T20:11:36.789Z,97.00
2023-03-21T20:14:03.823Z,96.90
2023-03-21T20:16:35.068Z,96.90
2023-03-21T20:19:08.633Z,96.90
2023-03-21T20:21:46.594Z,97.00
2023-03-21T20:24:16.747Z,97.00
2023-03-21T20:26:45.058Z,97.00
2023-03-21T20:30:14.624Z,97.10
2023-03-21T20:31:59.849Z,97.10
2023-03-21T20:34:26.606Z,97.10
2023-03-21T20:36:53.343Z,97.10
2023-03-21T20:39:20.160Z,97.10
2023-03-21T20:41:46.779Z,97.10
2023-03-21T20:44:44.843Z,97.10
2023-03-21T20:47:00.391Z,97.10
2023-03-21T20:49:28.393Z,97.10
2023-03-21T20:54:43.325Z,97.00
2023-03-21T20:57:10.072Z,97.00
2023-03-21T20:59:36.784Z,97.00
2023-03-21T21:02:03.663Z,97.00
2023-03-21T21:04:52.935Z,97.00
2023-03-21T21:07:21.250Z,97.10
2023-03-21T21:09:49.082Z,97.40
2023-03-21T21:12:17.339Z,97.00
2023-03-21T21:14:44.051Z,97.00
2023-03-21T21:19:57.745Z,97.10
2023-03-21T21:22:24.391Z,97.00
2023-03-21T21:24:51.231Z,97.10
2023-03-21T21:27:17.967Z,97.10
2023-03-21T21:29:47.554Z,97.20
2023-03-21T21:32:16.628Z,97.30
2023-03-21T21:34:43.566Z,97.30
2023-03-21T21:37:10.535Z,97.70
2023-03-21T21:39:38.507Z,97.40
2023-03-21T21:42:05.578Z,97.50
2023-03-21T21:44:32.314Z,97.60
2023-03-21T21:46:59.460Z,97.60
2023-03-21T21:49:26.860Z,97.60
2023-03-21T21:51:53.560Z,97.70
2023-03-21T21:54:20.205Z,97.70
2023-03-21T21:56:53.865Z,97.70
2023-03-21T21:59:22.094Z,97.70
2023-03-21T22:01:51.196Z,97.70
2023-03-21T22:04:27.612Z,97.70
2023-03-21T22:06:55.260Z,97.70
2023-03-21T22:09:22.662Z,97.70
2023-03-21T22:11:49.529Z,97.70
2023-03-21T22:14:16.197Z,97.80
2023-03-21T22:16:43.859Z,97.80
2023-03-21T22:19:10.635Z,97.80
2023-03-21T22:21:37.319Z,97.90
2023-03-21T22:24:04.269Z,97.90
2023-03-21T22:26:31.326Z,97.90
2023-03-21T22:28:59.815Z,98.00
2023-03-21T22:31:26.693Z,98.00
2023-03-21T22:33:53.591Z,98.00
2023-03-21T22:36:20.521Z,98.00
2023-03-21T22:38:47.821Z,98.10
2023-03-21T22:41:14.626Z,98.10
2023-03-21T22:43:41.485Z,98.10
2023-03-21T22:46:08.220Z,98.20
2023-03-21T22:48:34.973Z,98.20
2023-03-21T22:51:01.682Z,98.20
2023-03-21T22:53:28.439Z,98.20
2023-03-21T22:55:55.751Z,98.20
2023-03-21T22:58:22.836Z,98.20
2023-03-21T23:00:49.485Z,98.30
2023-03-21T23:03:16.943Z,98.20
2023-03-21T23:05:44.912Z,98.20
2023-03-21T23:08:12.344Z,98.20
2023-03-21T23:10:41.385Z,98.20
2023-03-21T23:13:08.191Z,98.30
2023-03-21T23:15:34.941Z,98.30
2023-03-21T23:18:01.629Z,98.30
2023-03-21T23:20:28.376Z,98.30
2023-03-21T23:22:55.383Z,98.30
2023-03-21T23:25:22.066Z,98.40
2023-03-21T23:27:48.931Z,98.40
2023-03-21T23:30:15.745Z,98.40
2023-03-21T23:32:42.816Z,98.50
2023-03-21T23:35:10.171Z,98.50
2023-03-21T23:37:36.798Z,98.50
2023-03-21T23:40:06.131Z,98.50
2023-03-21T23:42:34.081Z,98.50
2023-03-21T23:45:00.859Z,98.50
2023-03-21T23:47:27.544Z,98.50
2023-03-21T23:49:54.394Z,98.50
2023-03-21T23:52:21.326Z,98.50
2023-03-21T23:54:48.050Z,98.50
2023-03-21T23:57:14.933Z,98.50
2023-03-21T23:59:41.623Z,98.50
